sensor_id;sensor_type;location;lat;lon;timestamp;temperature;humidity
1678;DHT22;6034;46.864;15.216;2023-04-24T05:01:50;11.70;99.90
1678;DHT22;6034;46.864;15.216;2023-04-24T05:04:17;11.70;99.90
1678;DHT22;6034;46.864;15.216;2023-04-24T05:06:44;11.60;99.90
1678;DHT22;6034;46.864;15.216;2023-04-24T05:09:12;11.70;99.90
1678;DHT22;6034;46.864;15.216;2023-04-24T05:11:39;11.70;99.90
1678;DHT22;6034;46.864;15.216;2023-04-24T05:14:06;11.70;99.90
1678;DHT22;6034;46.864;15.216;2023-04-24T05:16:34;11.80;99.90
1678;DHT22;6034;46.864;15.216;2023-04-24T05:19:03;11.90;99.90
1678;DHT22;6034;46.864;15.216;2023-04-24T05:21:31;11.90;99.90
1678;DHT22;6034;46.864;15.216;2023-04-24T05:23:59;11.90;99.90
1678;DHT22;6034;46.864;15.216;2023-04-24T05:26:28;11.90;99.90
1678;DHT22;6034;46.864;15.216;2023-04-24T05:28:56;12.00;99.90
1678;DHT22;6034;46.864;15.216;2023-04-24T05:31:23;12.00;99.90
1678;DHT22;6034;46.864;15.216;2023-04-24T05:33:51;12.10;99.90
1678;DHT22;6034;46.864;15.216;2023-04-24T05:36:20;12.10;99.90
1678;DHT22;6034;46.864;15.216;2023-04-24T05:38:48;12.20;99.90
1678;DHT22;6034;46.864;15.216;2023-04-24T05:41:16;12.10;99.90
1678;DHT22;6034;46.864;15.216;2023-04-24T05:43:46;12.20;99.90
1678;DHT22;6034;46.864;15.216;2023-04-24T05:46:13;12.40;99.90
1678;DHT22;6034;46.864;15.216;2023-04-24T05:48:40;12.40;99.90
1678;DHT22;6034;46.864;15.216;2023-04-24T05:51:08;12.20;99.90
1678;DHT22;6034;46.864;15.216;2023-04-24T05:53:37;12.30;99.90
1678;DHT22;6034;46.864;15.216;2023-04-24T05:56:04;12.10;99.90
1678;DHT22;6034;46.864;15.216;2023-04-24T05:58:31;11.60;99.90
1678;DHT22;6034;46.864;15.216;2023-04-24T06:00:58;12.00;99.90
1678;DHT22;6034;46.864;15.216;2023-04-24T06:03:27;12.20;99.90
1678;DHT22;6034;46.864;15.216;2023-04-24T06:05:54;12.40;99.90
1678;DHT22;6034;46.864;15.216;2023-04-24T06:08:21;12.50;99.90
1678;DHT22;6034;46.864;15.216;2023-04-24T06:10:51;12.50;99.90
1678;DHT22;6034;46.864;15.216;2023-04-24T06:13:18;12.50;99.90
1678;DHT22;6034;46.864;15.216;2023-04-24T06:15:45;12.50;99.90
1678;DHT22;6034;46.864;15.216;2023-04-24T06:18:15;12.60;99.90
1678;DHT22;6034;46.864;15.216;2023-04-24T06:20:42;12.50;99.90
1678;DHT22;6034;46.864;15.216;2023-04-24T06:23:10;12.50;99.90
1678;DHT22;6034;46.864;15.216;2023-04-24T06:25:37;12.60;99.90
1678;DHT22;6034;46.864;15.216;2023-04-24T06:28:06;12.60;99.90
1678;DHT22;6034;46.864;15.216;2023-04-24T06:30:33;12.60;99.90
1678;DHT22;6034;46.864;15.216;2023-04-24T06:33:00;12.60;99.90
1678;DHT22;6034;46.864;15.216;2023-04-24T06:35:27;12.40;99.90
1678;DHT22;6034;46.864;15.216;2023-04-24T06:37:54;12.30;99.90
1678;DHT22;6034;46.864;15.216;2023-04-24T06:40:22;12.40;99.90
1678;DHT22;6034;46.864;15.216;2023-04-24T06:42:50;12.50;99.90
1678;DHT22;6034;46.864;15.216;2023-04-24T06:45:18;12.50;99.90
1678;DHT22;6034;46.864;15.216;2023-04-24T06:47:46;12.50;99.90
1678;DHT22;6034;46.864;15.216;2023-04-24T06:50:13;12.60;99.90
1678;DHT22;6034;46.864;15.216;2023-04-24T06:52:40;12.60;99.90
1678;DHT22;6034;46.864;15.216;2023-04-24T06:55:08;12.50;99.90
1678;DHT22;6034;46.864;15.216;2023-04-24T06:57:38;12.50;99.90
1678;DHT22;6034;46.864;15.216;2023-04-24T07:00:08;12.50;99.90
1678;DHT22;6034;46.864;15.216;2023-04-24T07:02:41;12.50;99.90
1678;DHT22;6034;46.864;15.216;2023-04-24T07:05:13;12.40;99.90
1678;DHT22;6034;46.864;15.216;2023-04-24T07:07:45;12.40;99.90
1678;DHT22;6034;46.864;15.216;2023-04-24T07:10:13;12.50;99.90
1678;DHT22;6034;46.864;15.216;2023-04-24T07:12:42;12.40;99.90
1678;DHT22;6034;46.864;15.216;2023-04-24T07:15:09;12.50;99.90
1678;DHT22;6034;46.864;15.216;2023-04-24T07:17:37;12.50;99.90
1678;DHT22;6034;46.864;15.216;2023-04-24T07:20:10;12.50;99.90
1678;DHT22;6034;46.864;15.216;2023-04-24T07:22:39;12.50;99.90
1678;DHT22;6034;46.864;15.216;2023-04-24T07:25:07;12.50;99.90
1678;DHT22;6034;46.864;15.216;2023-04-24T07:27:34;12.50;99.90
1678;DHT22;6034;46.864;15.216;2023-04-24T07:30:03;12.50;99.90
1678;DHT22;6034;46.864;15.216;2023-04-24T07:32:33;12.50;99.90
1678;DHT22;6034;46.864;15.216;2023-04-24T07:35:02;12.50;99.90
1678;DHT22;6034;46.864;15.216;2023-04-24T07:37:31;12.50;99.90
1678;DHT22;6034;46.864;15.216;2023-04-24T07:39:59;12.50;99.90
1678;DHT22;6034;46.864;15.216;2023-04-24T07:42:29;12.50;99.90
1678;DHT22;6034;46.864;15.216;2023-04-24T07:44:57;12.60;99.90
1678;DHT22;6034;46.864;15.216;2023-04-24T07:47:25;12.60;99.90
1678;DHT22;6034;46.864;15.216;2023-04-24T07:49:52;12.50;99.90
1678;DHT22;6034;46.864;15.216;2023-04-24T07:52:20;12.50;99.90
1678;DHT22;6034;46.864;15.216;2023-04-24T07:54:49;12.60;99.90
1678;DHT22;6034;46.864;15.216;2023-04-24T07:57:18;12.60;99.90
1678;DHT22;6034;46.864;15.216;2023-04-24T07:59:45;12.60;99.90
1678;DHT22;6034;46.864;15.216;2023-04-24T08:02:13;12.60;99.90
1678;DHT22;6034;46.864;15.216;2023-04-24T08:04:44;12.60;99.90
1678;DHT22;6034;46.864;15.216;2023-04-24T08:07:14;12.50;99.90
1678;DHT22;6034;46.864;15.216;2023-04-24T08:09:43;12.50;99.90
1678;DHT22;6034;46.864;15.216;2023-04-24T08:12:13;12.50;99.90
1678;DHT22;6034;46.864;15.216;2023-04-24T08:14:44;12.50;99.90
1678;DHT22;6034;46.864;15.216;2023-04-24T08:17:13;12.50;99.90
1678;DHT22;6034;46.864;15.216;2023-04-24T08:19:43;12.50;99.90
1678;DHT22;6034;46.864;15.216;2023-04-24T08:22:14;12.50;99.90
1678;DHT22;6034;46.864;15.216;2023-04-24T08:24:46;12.60;99.90
1678;DHT22;6034;46.864;15.216;2023-04-24T08:27:19;12.50;99.90
1678;DHT22;6034;46.864;15.216;2023-04-24T08:29:52;12.40;99.90
1678;DHT22;6034;46.864;15.216;2023-04-24T08:32:21;12.30;99.90
1678;DHT22;6034;46.864;15.216;2023-04-24T08:34:49;11.80;99.90
1678;DHT22;6034;46.864;15.216;2023-04-24T08:37:18;11.80;99.90
1678;DHT22;6034;46.864;15.216;2023-04-24T08:39:46;12.00;99.90
1678;DHT22;6034;46.864;15.216;2023-04-24T08:42:13;12.30;99.90
1678;DHT22;6034;46.864;15.216;2023-04-24T08:44:42;12.40;99.90
1678;DHT22;6034;46.864;15.216;2023-04-24T08:47:10;12.40;99.90
1678;DHT22;6034;46.864;15.216;2023-04-24T08:49:38;12.50;99.90
1678;DHT22;6034;46.864;15.216;2023-04-24T08:52:06;12.50;99.90
1678;DHT22;6034;46.864;15.216;2023-04-24T08:54:34;12.50;99.90
1678;DHT22;6034;46.864;15.216;2023-04-24T08:57:03;12.50;99.90
1678;DHT22;6034;46.864;15.216;2023-04-24T08:59:31;12.50;99.90
1678;DHT22;6034;46.864;15.216;2023-04-24T09:02:01;12.50;99.90
1678;DHT22;6034;46.864;15.216;2023-04-24T09:04:31;12.60;99.90
1678;DHT22;6034;46.864;15.216;2023-04-24T09:07:00;12.60;99.90
1678;DHT22;6034;46.864;15.216;2023-04-24T09:09:28;12.70;99.90
1678;DHT22;6034;46.864;15.216;2023-04-24T09:11:57;12.70;99.90
1678;DHT22;6034;46.864;15.216;2023-04-24T09:14:25;12.60;99.90
1678;DHT22;6034;46.864;15.216;2023-04-24T09:16:53;12.70;99.90
1678;DHT22;6034;46.864;15.216;2023-04-24T09:19:23;12.70;99.90
1678;DHT22;6034;46.864;15.216;2023-04-24T09:21:50;12.70;99.90
1678;DHT22;6034;46.864;15.216;2023-04-24T09:24:21;12.70;99.90
1678;DHT22;6034;46.864;15.216;2023-04-24T09:26:55;12.70;99.90
1678;DHT22;6034;46.864;15.216;2023-04-24T09:29:24;12.70;99.90
1678;DHT22;6034;46.864;15.216;2023-04-24T09:31:54;12.70;99.90
1678;DHT22;6034;46.864;15.216;2023-04-24T09:34:22;12.70;99.90
1678;DHT22;6034;46.864;15.216;2023-04-24T09:36:50;12.70;99.90
1678;DHT22;6034;46.864;15.216;2023-04-24T09:39:19;12.70;99.90
1678;DHT22;6034;46.864;15.216;2023-04-24T09:41:48;12.70;99.90
1678;DHT22;6034;46.864;15.216;2023-04-24T09:44:17;12.70;99.90
1678;DHT22;6034;46.864;15.216;2023-04-24T09:46:48;12.80;99.90
1678;DHT22;6034;46.864;15.216;2023-04-24T09:49:21;12.80;99.90
1678;DHT22;6034;46.864;15.216;2023-04-24T09:51:51;12.70;99.90
1678;DHT22;6034;46.864;15.216;2023-04-24T09:54:19;12.80;99.90
1678;DHT22;6034;46.864;15.216;2023-04-24T09:56:48;12.80;99.90
1678;DHT22;6034;46.864;15.216;2023-04-24T09:59:18;12.80;99.90
1678;DHT22;6034;46.864;15.216;2023-04-24T10:01:46;12.80;99.90
1678;DHT22;6034;46.864;15.216;2023-04-24T10:04:15;12.90;99.90
1678;DHT22;6034;46.864;15.216;2023-04-24T10:06:42;12.80;99.90
1678;DHT22;6034;46.864;15.216;2023-04-24T10:09:11;12.80;99.90
1678;DHT22;6034;46.864;15.216;2023-04-24T10:11:41;12.80;99.90
1678;DHT22;6034;46.864;15.216;2023-04-24T10:14:09;12.90;99.90
1678;DHT22;6034;46.864;15.216;2023-04-24T10:16:38;12.90;99.90
1678;DHT22;6034;46.864;15.216;2023-04-24T10:19:07;12.90;99.90
1678;DHT22;6034;46.864;15.216;2023-04-24T10:21:36;12.90;99.90
1678;DHT22;6034;46.864;15.216;2023-04-24T10:24:07;13.00;99.90
1678;DHT22;6034;46.864;15.216;2023-04-24T10:26:37;13.00;99.90
1678;DHT22;6034;46.864;15.216;2023-04-24T10:29:06;13.10;99.90
1678;DHT22;6034;46.864;15.216;2023-04-24T10:31:38;13.00;99.90
1678;DHT22;6034;46.864;15.216;2023-04-24T10:34:06;13.00;99.90
1678;DHT22;6034;46.864;15.216;2023-04-24T10:36:36;13.00;99.90
1678;DHT22;6034;46.864;15.216;2023-04-24T10:39:07;13.20;99.90
1678;DHT22;6034;46.864;15.216;2023-04-24T10:41:38;13.30;99.90
1678;DHT22;6034;46.864;15.216;2023-04-24T10:44:08;13.30;99.90
1678;DHT22;6034;46.864;15.216;2023-04-24T10:46:36;13.20;99.90
1678;DHT22;6034;46.864;15.216;2023-04-24T10:49:04;13.30;99.90
1678;DHT22;6034;46.864;15.216;2023-04-24T10:51:44;13.30;99.90
1678;DHT22;6034;46.864;15.216;2023-04-24T10:54:25;13.40;99.90
1678;DHT22;6034;46.864;15.216;2023-04-24T10:56:56;13.40;99.90
1678;DHT22;6034;46.864;15.216;2023-04-24T10:59:42;13.50;99.90
1678;DHT22;6034;46.864;15.216;2023-04-24T11:02:10;13.50;99.90
1678;DHT22;6034;46.864;15.216;2023-04-24T11:04:41;13.50;99.90
1678;DHT22;6034;46.864;15.216;2023-04-24T11:07:09;13.60;99.90
1678;DHT22;6034;46.864;15.216;2023-04-24T11:09:38;13.60;99.90
1678;DHT22;6034;46.864;15.216;2023-04-24T11:12:08;13.60;99.90
1678;DHT22;6034;46.864;15.216;2023-04-24T11:17:28;13.60;99.90
1678;DHT22;6034;46.864;15.216;2023-04-24T11:20:00;13.70;99.90
1678;DHT22;6034;46.864;15.216;2023-04-24T11:22:30;13.70;99.90
1678;DHT22;6034;46.864;15.216;2023-04-24T11:25:01;13.70;99.90
1678;DHT22;6034;46.864;15.216;2023-04-24T11:27:31;13.70;99.90
1678;DHT22;6034;46.864;15.216;2023-04-24T11:29:59;13.70;99.90
1678;DHT22;6034;46.864;15.216;2023-04-24T11:32:30;13.80;99.90
1678;DHT22;6034;46.864;15.216;2023-04-24T11:34:59;13.80;99.90
1678;DHT22;6034;46.864;15.216;2023-04-24T11:37:28;13.80;99.90
1678;DHT22;6034;46.864;15.216;2023-04-24T11:39:57;13.80;99.90
1678;DHT22;6034;46.864;15.216;2023-04-24T11:42:25;13.80;99.90
1678;DHT22;6034;46.864;15.216;2023-04-24T11:44:54;13.80;99.90
1678;DHT22;6034;46.864;15.216;2023-04-24T11:47:30;13.90;99.90
1678;DHT22;6034;46.864;15.216;2023-04-24T11:49:59;13.80;99.90
1678;DHT22;6034;46.864;15.216;2023-04-24T11:52:28;13.90;99.90
1678;DHT22;6034;46.864;15.216;2023-04-24T11:54:56;14.00;99.90
1678;DHT22;6034;46.864;15.216;2023-04-24T11:57:25;14.00;99.90
1678;DHT22;6034;46.864;15.216;2023-04-24T12:00:00;14.10;99.90
1678;DHT22;6034;46.864;15.216;2023-04-24T12:02:29;14.30;99.90
1678;DHT22;6034;46.864;15.216;2023-04-24T12:04:57;14.30;99.90
1678;DHT22;6034;46.864;15.216;2023-04-24T12:07:24;14.20;99.90
1678;DHT22;6034;46.864;15.216;2023-04-24T12:09:55;14.10;99.90
1678;DHT22;6034;46.864;15.216;2023-04-24T12:12:24;14.30;99.90
1678;DHT22;6034;46.864;15.216;2023-04-24T12:14:52;14.20;99.90
1678;DHT22;6034;46.864;15.216;2023-04-24T12:17:26;14.30;99.90
1678;DHT22;6034;46.864;15.216;2023-04-24T12:19:57;14.40;99.90
1678;DHT22;6034;46.864;15.216;2023-04-24T12:22:24;14.50;99.90
1678;DHT22;6034;46.864;15.216;2023-04-24T12:24:58;14.60;99.90
1678;DHT22;6034;46.864;15.216;2023-04-24T12:27:28;14.70;99.90
1678;DHT22;6034;46.864;15.216;2023-04-24T12:29:56;14.60;99.90
1678;DHT22;6034;46.864;15.216;2023-04-24T12:32:24;14.60;99.90
1678;DHT22;6034;46.864;15.216;2023-04-24T12:34:51;14.50;99.90
1678;DHT22;6034;46.864;15.216;2023-04-24T12:37:19;14.00;99.90
1678;DHT22;6034;46.864;15.216;2023-04-24T12:42:29;14.30;99.90
1678;DHT22;6034;46.864;15.216;2023-04-24T12:44:57;14.50;99.90
1678;DHT22;6034;46.864;15.216;2023-04-24T12:47:27;14.60;99.90
1678;DHT22;6034;46.864;15.216;2023-04-24T12:49:55;14.40;99.90
1678;DHT22;6034;46.864;15.216;2023-04-24T12:52:22;14.40;99.90
1678;DHT22;6034;46.864;15.216;2023-04-24T12:54:49;14.20;99.90
1678;DHT22;6034;46.864;15.216;2023-04-24T12:57:16;14.30;99.90
1678;DHT22;6034;46.864;15.216;2023-04-24T12:59:43;14.30;99.90
1678;DHT22;6034;46.864;15.216;2023-04-24T13:02:10;14.40;99.90
1678;DHT22;6034;46.864;15.216;2023-04-24T13:04:39;14.30;99.90
1678;DHT22;6034;46.864;15.216;2023-04-24T13:07:06;14.00;99.90
1678;DHT22;6034;46.864;15.216;2023-04-24T13:09:34;13.70;99.90
1678;DHT22;6034;46.864;15.216;2023-04-24T13:12:01;14.00;99.90
1678;DHT22;6034;46.864;15.216;2023-04-24T13:14:28;14.30;99.90
1678;DHT22;6034;46.864;15.216;2023-04-24T13:16:56;14.40;99.90
1678;DHT22;6034;46.864;15.216;2023-04-24T13:19:23;14.50;99.90
1678;DHT22;6034;46.864;15.216;2023-04-24T13:21:52;14.50;99.90
1678;DHT22;6034;46.864;15.216;2023-04-24T13:24:19;14.50;99.90
1678;DHT22;6034;46.864;15.216;2023-04-24T13:26:47;14.60;99.90
1678;DHT22;6034;46.864;15.216;2023-04-24T13:29:15;14.70;99.90
1678;DHT22;6034;46.864;15.216;2023-04-24T13:31:43;14.70;99.90
1678;DHT22;6034;46.864;15.216;2023-04-24T13:34:11;14.80;99.90
1678;DHT22;6034;46.864;15.216;2023-04-24T13:36:40;14.80;99.90
1678;DHT22;6034;46.864;15.216;2023-04-24T13:39:10;14.90;99.90
1678;DHT22;6034;46.864;15.216;2023-04-24T13:41:39;14.90;99.90
1678;DHT22;6034;46.864;15.216;2023-04-24T13:44:10;14.90;99.90
1678;DHT22;6034;46.864;15.216;2023-04-24T13:46:38;14.90;99.90
1678;DHT22;6034;46.864;15.216;2023-04-24T13:49:05;14.90;99.90
1678;DHT22;6034;46.864;15.216;2023-04-24T13:51:33;14.80;99.90
1678;DHT22;6034;46.864;15.216;2023-04-24T13:54:00;14.80;99.90
1678;DHT22;6034;46.864;15.216;2023-04-24T13:56:29;14.80;99.90
1678;DHT22;6034;46.864;15.216;2023-04-24T13:58:59;14.80;99.90
1678;DHT22;6034;46.864;15.216;2023-04-24T14:01:28;14.80;99.90
1678;DHT22;6034;46.864;15.216;2023-04-24T14:03:57;14.90;99.90
1678;DHT22;6034;46.864;15.216;2023-04-24T14:06:25;14.90;99.90
1678;DHT22;6034;46.864;15.216;2023-04-24T14:08:53;14.90;99.90
1678;DHT22;6034;46.864;15.216;2023-04-24T14:11:19;14.90;99.90
1678;DHT22;6034;46.864;15.216;2023-04-24T14:13:49;14.90;99.90
1678;DHT22;6034;46.864;15.216;2023-04-24T14:16:17;14.80;99.90
1678;DHT22;6034;46.864;15.216;2023-04-24T14:18:44;15.00;99.90
1678;DHT22;6034;46.864;15.216;2023-04-24T14:21:12;14.90;99.90
1678;DHT22;6034;46.864;15.216;2023-04-24T14:23:39;14.90;99.90
1678;DHT22;6034;46.864;15.216;2023-04-24T14:26:06;14.90;99.90
1678;DHT22;6034;46.864;15.216;2023-04-24T14:28:33;14.90;99.90
1678;DHT22;6034;46.864;15.216;2023-04-24T14:31:02;14.90;99.90
1678;DHT22;6034;46.864;15.216;2023-04-24T14:33:29;14.90;99.90
1678;DHT22;6034;46.864;15.216;2023-04-24T14:35:56;14.70;99.90
1678;DHT22;6034;46.864;15.216;2023-04-24T14:38:23;14.70;99.90
1678;DHT22;6034;46.864;15.216;2023-04-24T14:40:50;14.80;99.90
1678;DHT22;6034;46.864;15.216;2023-04-24T14:43:17;14.80;99.90
1678;DHT22;6034;46.864;15.216;2023-04-24T14:45:44;14.80;99.90
1678;DHT22;6034;46.864;15.216;2023-04-24T14:48:12;14.80;99.90
1678;DHT22;6034;46.864;15.216;2023-04-24T14:50:41;14.80;99.90
1678;DHT22;6034;46.864;15.216;2023-04-24T14:53:08;14.70;99.90
1678;DHT22;6034;46.864;15.216;2023-04-24T14:55:36;14.80;99.90
1678;DHT22;6034;46.864;15.216;2023-04-24T14:58:03;14.80;99.90
1678;DHT22;6034;46.864;15.216;2023-04-24T15:00:30;14.70;99.90
1678;DHT22;6034;46.864;15.216;2023-04-24T15:02:58;14.70;99.90
1678;DHT22;6034;46.864;15.216;2023-04-24T15:05:26;14.60;99.90
1678;DHT22;6034;46.864;15.216;2023-04-24T15:07:53;14.60;99.90
1678;DHT22;6034;46.864;15.216;2023-04-24T15:10:20;14.70;99.90
1678;DHT22;6034;46.864;15.216;2023-04-24T15:12:48;14.80;99.90
1678;DHT22;6034;46.864;15.216;2023-04-24T15:15:15;14.70;99.90
1678;DHT22;6034;46.864;15.216;2023-04-24T15:17:42;14.60;99.90
1678;DHT22;6034;46.864;15.216;2023-04-24T15:20:09;14.70;99.90
1678;DHT22;6034;46.864;15.216;2023-04-24T15:22:38;14.70;99.90
1678;DHT22;6034;46.864;15.216;2023-04-24T15:25:05;14.80;99.90
1678;DHT22;6034;46.864;15.216;2023-04-24T15:27:39;14.70;99.90
1678;DHT22;6034;46.864;15.216;2023-04-24T15:30:07;14.60;99.90
1678;DHT22;6034;46.864;15.216;2023-04-24T15:32:34;14.70;99.90
1678;DHT22;6034;46.864;15.216;2023-04-24T15:35:01;14.60;99.90
1678;DHT22;6034;46.864;15.216;2023-04-24T15:37:29;14.60;99.90
1678;DHT22;6034;46.864;15.216;2023-04-24T15:39:57;14.60;99.90
1678;DHT22;6034;46.864;15.216;2023-04-24T15:42:25;14.60;99.90
1678;DHT22;6034;46.864;15.216;2023-04-24T15:44:52;14.60;99.90
1678;DHT22;6034;46.864;15.216;2023-04-24T15:47:19;14.50;99.90
1678;DHT22;6034;46.864;15.216;2023-04-24T15:49:46;14.00;99.90
1678;DHT22;6034;46.864;15.216;2023-04-24T15:52:13;13.40;99.90
1678;DHT22;6034;46.864;15.216;2023-04-24T15:54:40;13.70;99.90
1678;DHT22;6034;46.864;15.216;2023-04-24T15:57:08;14.00;99.90
1678;DHT22;6034;46.864;15.216;2023-04-24T15:59:37;13.70;99.90
1678;DHT22;6034;46.864;15.216;2023-04-24T16:02:04;13.90;99.90
1678;DHT22;6034;46.864;15.216;2023-04-24T16:04:32;14.00;99.90
1678;DHT22;6034;46.864;15.216;2023-04-24T16:06:59;14.10;99.90
1678;DHT22;6034;46.864;15.216;2023-04-24T16:09:26;14.20;99.90
1678;DHT22;6034;46.864;15.216;2023-04-24T16:11:54;14.20;99.90
1678;DHT22;6034;46.864;15.216;2023-04-24T16:14:23;14.10;99.90
1678;DHT22;6034;46.864;15.216;2023-04-24T16:16:52;14.00;99.90
1678;DHT22;6034;46.864;15.216;2023-04-24T16:19:20;13.60;99.90
1678;DHT22;6034;46.864;15.216;2023-04-24T16:21:47;13.00;99.90
1678;DHT22;6034;46.864;15.216;2023-04-24T16:24:16;12.60;99.90
1678;DHT22;6034;46.864;15.216;2023-04-24T16:26:43;12.10;99.90
1678;DHT22;6034;46.864;15.216;2023-04-24T16:29:11;12.20;99.90
1678;DHT22;6034;46.864;15.216;2023-04-24T16:31:41;11.70;99.90
1678;DHT22;6034;46.864;15.216;2023-04-24T16:34:08;11.90;99.90
1678;DHT22;6034;46.864;15.216;2023-04-24T16:36:35;11.60;99.90
1678;DHT22;6034;46.864;15.216;2023-04-24T16:39:03;12.00;99.90
1678;DHT22;6034;46.864;15.216;2023-04-24T16:41:30;12.20;99.90
1678;DHT22;6034;46.864;15.216;2023-04-24T16:43:57;12.30;99.90
1678;DHT22;6034;46.864;15.216;2023-04-24T16:46:25;12.30;99.90
1678;DHT22;6034;46.864;15.216;2023-04-24T16:48:54;12.20;99.90
1678;DHT22;6034;46.864;15.216;2023-04-24T16:51:21;12.20;99.90
1678;DHT22;6034;46.864;15.216;2023-04-24T16:53:48;12.20;99.90
1678;DHT22;6034;46.864;15.216;2023-04-24T16:56:15;12.10;99.90
1678;DHT22;6034;46.864;15.216;2023-04-24T16:58:42;12.10;99.90
1678;DHT22;6034;46.864;15.216;2023-04-24T17:01:09;12.10;99.90
1678;DHT22;6034;46.864;15.216;2023-04-24T17:03:36;12.10;99.90
1678;DHT22;6034;46.864;15.216;2023-04-24T17:06:06;12.10;99.90
1678;DHT22;6034;46.864;15.216;2023-04-24T17:08:33;11.90;99.90
1678;DHT22;6034;46.864;15.216;2023-04-24T17:11:00;11.90;99.90
1678;DHT22;6034;46.864;15.216;2023-04-24T17:13:27;11.90;99.90
1678;DHT22;6034;46.864;15.216;2023-04-24T17:15:55;11.90;99.90
1678;DHT22;6034;46.864;15.216;2023-04-24T17:18:22;11.80;99.90
1678;DHT22;6034;46.864;15.216;2023-04-24T17:20:51;11.80;99.90
1678;DHT22;6034;46.864;15.216;2023-04-24T17:23:20;11.70;99.90
1678;DHT22;6034;46.864;15.216;2023-04-24T17:25:47;11.70;99.90
1678;DHT22;6034;46.864;15.216;2023-04-24T17:28:19;11.60;99.90
1678;DHT22;6034;46.864;15.216;2023-04-24T17:30:49;11.70;99.90
1678;DHT22;6034;46.864;15.216;2023-04-24T17:33:19;11.70;99.90
1678;DHT22;6034;46.864;15.216;2023-04-24T17:35:48;11.70;99.90
1678;DHT22;6034;46.864;15.216;2023-04-24T17:38:17;11.70;99.90
1678;DHT22;6034;46.864;15.216;2023-04-24T17:40:46;11.70;99.90
1678;DHT22;6034;46.864;15.216;2023-04-24T17:43:17;11.60;99.90
1678;DHT22;6034;46.864;15.216;2023-04-24T17:45:45;11.60;99.90
1678;DHT22;6034;46.864;15.216;2023-04-24T17:48:13;11.60;99.90
1678;DHT22;6034;46.864;15.216;2023-04-24T17:50:45;11.50;99.90
1678;DHT22;6034;46.864;15.216;2023-04-24T17:53:17;11.40;99.90
1678;DHT22;6034;46.864;15.216;2023-04-24T17:55:47;11.40;99.90
1678;DHT22;6034;46.864;15.216;2023-04-24T17:58:15;11.40;99.90
1678;DHT22;6034;46.864;15.216;2023-04-24T18:00:47;11.40;99.90
1678;DHT22;6034;46.864;15.216;2023-04-24T18:03:14;11.50;99.90
1678;DHT22;6034;46.864;15.216;2023-04-24T18:05:41;11.40;99.90
1678;DHT22;6034;46.864;15.216;2023-04-24T18:08:09;11.40;99.90
1678;DHT22;6034;46.864;15.216;2023-04-24T18:10:37;11.40;99.90
1678;DHT22;6034;46.864;15.216;2023-04-24T18:13:06;11.40;99.90
1678;DHT22;6034;46.864;15.216;2023-04-24T18:15:36;11.40;99.90
1678;DHT22;6034;46.864;15.216;2023-04-24T18:18:07;11.40;99.90
1678;DHT22;6034;46.864;15.216;2023-04-24T18:20:34;11.30;99.90
1678;DHT22;6034;46.864;15.216;2023-04-24T18:23:02;11.30;99.90
1678;DHT22;6034;46.864;15.216;2023-04-24T18:25:29;11.20;99.90
1678;DHT22;6034;46.864;15.216;2023-04-24T18:27:57;11.20;99.90
1678;DHT22;6034;46.864;15.216;2023-04-24T18:30:26;11.10;99.90
1678;DHT22;6034;46.864;15.216;2023-04-24T18:32:56;11.20;99.90
1678;DHT22;6034;46.864;15.216;2023-04-24T18:35:24;11.20;99.90
1678;DHT22;6034;46.864;15.216;2023-04-24T18:37:53;11.10;99.90
1678;DHT22;6034;46.864;15.216;2023-04-24T18:40:20;11.10;99.90
1678;DHT22;6034;46.864;15.216;2023-04-24T18:42:48;11.20;99.90
1678;DHT22;6034;46.864;15.216;2023-04-24T18:45:16;11.10;99.90
1678;DHT22;6034;46.864;15.216;2023-04-24T18:47:47;11.10;99.90
1678;DHT22;6034;46.864;15.216;2023-04-24T18:50:15;11.10;99.90
1678;DHT22;6034;46.864;15.216;2023-04-24T18:52:44;11.10;99.90
1678;DHT22;6034;46.864;15.216;2023-04-24T18:55:13;11.00;99.90
1678;DHT22;6034;46.864;15.216;2023-04-24T18:57:41;11.00;99.90
1678;DHT22;6034;46.864;15.216;2023-04-24T19:00:08;11.00;99.90
1678;DHT22;6034;46.864;15.216;2023-04-24T19:02:36;11.00;99.90
1678;DHT22;6034;46.864;15.216;2023-04-24T19:05:05;10.80;99.90
1678;DHT22;6034;46.864;15.216;2023-04-24T19:07:36;10.70;99.90
1678;DHT22;6034;46.864;15.216;2023-04-24T19:10:04;10.80;99.90
1678;DHT22;6034;46.864;15.216;2023-04-24T19:12:33;10.80;99.90
1678;DHT22;6034;46.864;15.216;2023-04-24T19:15:01;10.90;99.90
1678;DHT22;6034;46.864;15.216;2023-04-24T19:17:30;10.90;99.90
1678;DHT22;6034;46.864;15.216;2023-04-24T19:19:57;10.80;99.90
1678;DHT22;6034;46.864;15.216;2023-04-24T19:22:26;10.70;99.90
1678;DHT22;6034;46.864;15.216;2023-04-24T19:24:53;10.70;99.90
1678;DHT22;6034;46.864;15.216;2023-04-24T19:27:23;10.80;99.90
1678;DHT22;6034;46.864;15.216;2023-04-24T19:29:52;10.70;99.90
1678;DHT22;6034;46.864;15.216;2023-04-24T19:32:19;10.70;99.90
1678;DHT22;6034;46.864;15.216;2023-04-24T19:34:46;10.70;99.90
1678;DHT22;6034;46.864;15.216;2023-04-24T19:37:13;10.70;99.90
1678;DHT22;6034;46.864;15.216;2023-04-24T19:39:42;10.70;99.90
1678;DHT22;6034;46.864;15.216;2023-04-24T19:42:10;10.70;99.90
1678;DHT22;6034;46.864;15.216;2023-04-24T19:44:37;10.70;99.90
1678;DHT22;6034;46.864;15.216;2023-04-24T19:47:04;10.60;99.90
1678;DHT22;6034;46.864;15.216;2023-04-24T19:49:31;10.50;99.90
1678;DHT22;6034;46.864;15.216;2023-04-24T19:51:59;10.60;99.90
1678;DHT22;6034;46.864;15.216;2023-04-24T19:54:27;10.60;99.90
1678;DHT22;6034;46.864;15.216;2023-04-24T19:56:55;10.60;99.90
1678;DHT22;6034;46.864;15.216;2023-04-24T19:59:22;10.70;99.90
1678;DHT22;6034;46.864;15.216;2023-04-24T20:01:49;10.60;99.90
1678;DHT22;6034;46.864;15.216;2023-04-24T20:04:17;10.60;99.90
1678;DHT22;6034;46.864;15.216;2023-04-24T20:06:47;10.50;99.90
1678;DHT22;6034;46.864;15.216;2023-04-24T20:09:14;10.60;99.90
1678;DHT22;6034;46.864;15.216;2023-04-24T20:11:42;10.60;99.90
1678;DHT22;6034;46.864;15.216;2023-04-24T20:14:11;10.50;99.90
1678;DHT22;6034;46.864;15.216;2023-04-24T20:16:38;10.50;99.90
1678;DHT22;6034;46.864;15.216;2023-04-24T20:19:05;10.20;99.90
1678;DHT22;6034;46.864;15.216;2023-04-24T20:21:32;10.10;99.90
1678;DHT22;6034;46.864;15.216;2023-04-24T20:24:00;10.10;99.90
1678;DHT22;6034;46.864;15.216;2023-04-24T20:26:27;10.00;99.90
1678;DHT22;6034;46.864;15.216;2023-04-24T20:28:54;9.90;99.90
1678;DHT22;6034;46.864;15.216;2023-04-24T20:31:22;10.00;99.90
1678;DHT22;6034;46.864;15.216;2023-04-24T20:33:50;9.90;99.90
1678;DHT22;6034;46.864;15.216;2023-04-24T20:36:18;9.90;99.90
1678;DHT22;6034;46.864;15.216;2023-04-24T20:38:46;9.90;99.90
1678;DHT22;6034;46.864;15.216;2023-04-24T20:41:13;9.90;99.90
1678;DHT22;6034;46.864;15.216;2023-04-24T20:43:40;10.00;99.90
1678;DHT22;6034;46.864;15.216;2023-04-24T20:46:07;10.00;99.90
1678;DHT22;6034;46.864;15.216;2023-04-24T20:48:36;10.00;99.90
1678;DHT22;6034;46.864;15.216;2023-04-24T20:51:03;10.10;99.90
1678;DHT22;6034;46.864;15.216;2023-04-24T20:53:30;10.00;99.90
1678;DHT22;6034;46.864;15.216;2023-04-24T20:55:57;10.00;99.90
1678;DHT22;6034;46.864;15.216;2023-04-24T20:58:24;10.00;99.90
1678;DHT22;6034;46.864;15.216;2023-04-24T21:00:51;9.90;99.90